Avoca, Illinois
Current Conditions -  °F | °C
As of 1:15 PM on Saturday 25 Oct 2014 (Local Time) from KPNT Reporting Station
Clear Clear  
Wind Chill: 72°   Ceiling: Unl
Heat Index: 72°   Visibility: 10mi
Dew Point: 52°   Wind: 12mph
Humidity: 48%   Direction: 310°NW
Pressure: 29.99"   Gusts: 18mph
Location:  40.7318°N, 88.524°W
Report Text: KPNT 251815Z AUTO 31010G16KT 10SM CLR 22/11 A2999 RMK AO2 T02230109
Loading
Personal Weather Stations






























Interactive Weather Map New forecast layout! Learn more

10-Day Weather Forecast

Advertisements
Track Severe Weather on mobile